IGO1115 VABB-VGHS
Flight info
| Callsign | IGO1115 |
|---|---|
| Flight time | 1h 0m |
| Altitude | 37000 |
| Route | ANOLI2A NONEN Q19 CEA A462 IKOGU |
| Aircraft | A20N/M-SDE2E3FGHIRWXY/LB1 |
Departure
| Time | 2026-05-04 06:05 |
|---|---|
| Airport | Chhatrapati Shivaji Maharaj International Airport (VABB) |
Arrival
| Time | 2026-05-04 07:05 |
|---|---|
| Airport | Hazrat Shahjalal International Airport (VGHS) |
| Time | Latitude | Longitude | Altitude | Speed | Heading |
|---|---|---|---|---|---|
| 2026-05-04 05:51 | 19.09159 | 72.85847 | 35 ft | 0 kts | 345° |
| 2026-05-04 05:59 | 19.09144 | 72.85851 | 34 ft | 3 kts | 345° |
| 2026-05-04 05:59 | 19.09126 | 72.85856 | 32 ft | 3 kts | 345° |
| 2026-05-04 05:59 | 19.09107 | 72.85861 | 31 ft | 3 kts | 345° |
| 2026-05-04 05:59 | 19.09097 | 72.85864 | 32 ft | 0 kts | 345° |
| 2026-05-04 06:00 | 19.09099 | 72.85861 | 30 ft | 2 kts | 321° |
| 2026-05-04 06:00 | 19.09083 | 72.85844 | 31 ft | 7 kts | 195° |
| 2026-05-04 06:00 | 19.09025 | 72.85866 | 31 ft | 13 kts | 115° |
| 2026-05-04 06:01 | 19.09029 | 72.86037 | 32 ft | 38 kts | 86° |
| 2026-05-04 06:01 | 19.09037 | 72.86348 | 35 ft | 29 kts | 91° |
| 2026-05-04 06:03 | 19.09061 | 72.87993 | 33 ft | 19 kts | 89° |
| 2026-05-04 06:03 | 19.09014 | 72.88048 | 32 ft | 11 kts | 176° |
| 2026-05-04 06:05 | 19.09035 | 72.81262 | 3563 ft | 260 kts | 268° |
| 2026-05-04 06:05 | 19.09189 | 72.77075 | 5541 ft | 312 kts | 292° |
| 2026-05-04 06:05 | 19.09967 | 72.75769 | 6227 ft | 326 kts | 313° |
| 2026-05-04 06:06 | 19.11927 | 72.74447 | 7209 ft | 350 kts | 340° |
| 2026-05-04 06:06 | 19.14453 | 72.74047 | 7618 ft | 387 kts | 357° |
| 2026-05-04 06:06 | 19.17221 | 72.74010 | 7919 ft | 402 kts | 0° |
| 2026-05-04 06:06 | 19.20017 | 72.74056 | 8036 ft | 402 kts | 1° |
| 2026-05-04 06:07 | 19.23737 | 72.74128 | 8104 ft | 403 kts | 0° |
| 2026-05-04 06:07 | 19.25631 | 72.74139 | 8144 ft | 402 kts | 360° |
| 2026-05-04 06:07 | 19.28350 | 72.74596 | 8962 ft | 390 kts | 21° |
| 2026-05-04 06:07 | 19.30675 | 72.75881 | 10737 ft | 367 kts | 31° |
| 2026-05-04 06:08 | 19.32761 | 72.77316 | 12667 ft | 348 kts | 34° |
| 2026-05-04 06:08 | 19.34660 | 72.78758 | 14399 ft | 334 kts | 36° |
| 2026-05-04 06:08 | 19.36496 | 72.80248 | 15659 ft | 335 kts | 38° |
| 2026-05-04 06:08 | 19.38332 | 72.81814 | 16630 ft | 341 kts | 39° |
| 2026-05-04 06:09 | 19.40171 | 72.83442 | 17580 ft | 347 kts | 40° |
| 2026-05-04 06:09 | 19.42025 | 72.85123 | 18500 ft | 352 kts | 40° |
| 2026-05-04 06:11 | 19.48944 | 73.02339 | 24036 ft | 386 kts | 77° |
| 2026-05-04 06:11 | 19.49537 | 73.05135 | 24739 ft | 391 kts | 77° |
| 2026-05-04 06:13 | 19.53762 | 73.25565 | 28986 ft | 419 kts | 77° |
| 2026-05-04 06:14 | 19.56795 | 73.44243 | 31968 ft | 440 kts | 83° |
| 2026-05-04 06:14 | 19.57131 | 73.47485 | 32415 ft | 443 kts | 84° |
| 2026-05-04 06:15 | 19.57460 | 73.50746 | 32848 ft | 447 kts | 84° |
| 2026-05-04 06:15 | 19.57787 | 73.54035 | 33266 ft | 450 kts | 84° |
| 2026-05-04 06:15 | 19.58118 | 73.57351 | 33682 ft | 453 kts | 84° |
| 2026-05-04 06:15 | 19.58451 | 73.60685 | 34071 ft | 456 kts | 84° |
| 2026-05-04 06:16 | 19.58794 | 73.64042 | 34420 ft | 460 kts | 83° |
| 2026-05-04 06:16 | 19.59545 | 73.67300 | 34839 ft | 461 kts | 69° |
| 2026-05-04 06:16 | 19.60769 | 73.70439 | 35395 ft | 459 kts | 65° |
| 2026-05-04 06:16 | 19.62114 | 73.73504 | 35911 ft | 458 kts | 64° |
| 2026-05-04 06:17 | 19.63515 | 73.76532 | 36437 ft | 456 kts | 63° |
| 2026-05-04 06:17 | 19.64946 | 73.79526 | 36753 ft | 451 kts | 63° |
| 2026-05-04 06:17 | 19.66387 | 73.82480 | 36895 ft | 452 kts | 62° |
| 2026-05-04 06:17 | 19.67857 | 73.85452 | 36955 ft | 456 kts | 62° |
| 2026-05-04 06:18 | 19.70852 | 73.91439 | 36989 ft | 458 kts | 62° |
| 2026-05-04 06:20 | 19.81031 | 74.15752 | 36998 ft | 449 kts | 69° |
| 2026-05-04 06:21 | 19.86609 | 74.31271 | 36999 ft | 450 kts | 69° |
| 2026-05-04 06:22 | 19.88831 | 74.37474 | 36999 ft | 449 kts | 69° |
| 2026-05-04 06:25 | 20.30928 | 75.53924 | 36872 ft | 441 kts | 72° |
| 2026-05-04 06:25 | 20.37577 | 75.79119 | 36396 ft | 454 kts | 75° |
| 2026-05-04 06:26 | 20.44123 | 76.04386 | 36887 ft | 434 kts | 73° |
| 2026-05-04 06:26 | 20.51134 | 76.29856 | 37224 ft | 455 kts | 73° |
| 2026-05-04 06:26 | 20.58560 | 76.56771 | 37407 ft | 473 kts | 74° |
| 2026-05-04 06:27 | 20.96119 | 77.95096 | 36535 ft | 495 kts | 73° |
| 2026-05-04 06:28 | 21.11755 | 78.49946 | 36631 ft | 491 kts | 73° |
| 2026-05-04 06:28 | 21.19449 | 78.77695 | 36850 ft | 483 kts | 73° |
| 2026-05-04 06:28 | 21.27115 | 79.05397 | 37144 ft | 477 kts | 73° |
| 2026-05-04 06:29 | 21.34713 | 79.33130 | 37362 ft | 476 kts | 74° |
| 2026-05-04 06:29 | 21.42221 | 79.60886 | 37378 ft | 477 kts | 73° |
| 2026-05-04 06:29 | 21.49669 | 79.88606 | 37235 ft | 480 kts | 73° |
| 2026-05-04 06:29 | 21.54725 | 80.07430 | 37070 ft | 493 kts | 74° |
| 2026-05-04 06:30 | 21.56599 | 80.14464 | 37009 ft | 472 kts | 74° |
| 2026-05-04 06:30 | 21.58352 | 80.21073 | 37006 ft | 457 kts | 74° |
| 2026-05-04 06:30 | 21.62076 | 80.34234 | 37002 ft | 464 kts | 72° |
| 2026-05-04 06:31 | 21.65786 | 80.46904 | 37001 ft | 465 kts | 72° |
| 2026-05-04 06:31 | 21.66461 | 80.49212 | 37001 ft | 465 kts | 72° |
| 2026-05-04 06:33 | 21.83550 | 81.12873 | 37001 ft | 464 kts | 74° |
| 2026-05-04 06:34 | 21.90577 | 81.39611 | 37000 ft | 464 kts | 74° |
| 2026-05-04 06:34 | 21.97718 | 81.66295 | 37000 ft | 464 kts | 73° |
| 2026-05-04 06:36 | 22.66988 | 84.25959 | 35699 ft | 406 kts | 73° |
| 2026-05-04 06:37 | 22.79328 | 84.74006 | 37441 ft | 389 kts | 74° |
| 2026-05-04 06:37 | 22.90423 | 85.23407 | 35240 ft | 453 kts | 92° |
| 2026-05-04 06:37 | 22.84707 | 85.73167 | 35234 ft | 415 kts | 96° |
| 2026-05-04 06:37 | 22.80951 | 86.23208 | 35250 ft | 432 kts | 95° |
| 2026-05-04 06:38 | 22.78147 | 86.73277 | 34600 ft | 438 kts | 93° |
| 2026-05-04 06:38 | 22.75442 | 87.23221 | 33758 ft | 442 kts | 95° |
| 2026-05-04 06:40 | 23.17641 | 89.31459 | 36661 ft | 422 kts | 56° |
| 2026-05-04 06:40 | 23.19279 | 89.34131 | 36853 ft | 429 kts | 56° |
| 2026-05-04 06:40 | 23.22666 | 89.39647 | 36973 ft | 448 kts | 56° |
| 2026-05-04 06:41 | 23.24411 | 89.42502 | 36987 ft | 459 kts | 56° |
| 2026-05-04 06:41 | 23.26188 | 89.45422 | 36992 ft | 467 kts | 56° |
| 2026-05-04 06:41 | 23.29764 | 89.51340 | 36951 ft | 463 kts | 57° |
| 2026-05-04 06:42 | 23.31480 | 89.54209 | 36833 ft | 454 kts | 57° |
| 2026-05-04 06:42 | 23.33183 | 89.57082 | 36250 ft | 449 kts | 57° |
| 2026-05-04 06:42 | 23.34876 | 89.59913 | 35571 ft | 444 kts | 57° |
| 2026-05-04 06:44 | 23.43663 | 89.79208 | 30695 ft | 408 kts | 46° |
| 2026-05-04 06:44 | 23.45555 | 89.81486 | 30034 ft | 403 kts | 49° |
| 2026-05-04 06:44 | 23.47239 | 89.83906 | 29365 ft | 399 kts | 55° |
| 2026-05-04 06:45 | 23.48805 | 89.86377 | 28706 ft | 395 kts | 56° |
| 2026-05-04 06:45 | 23.50333 | 89.88847 | 28049 ft | 390 kts | 56° |
| 2026-05-04 06:45 | 23.51836 | 89.91291 | 27401 ft | 386 kts | 56° |
| 2026-05-04 06:45 | 23.53303 | 89.93680 | 26759 ft | 382 kts | 56° |
| 2026-05-04 06:46 | 23.58140 | 90.01556 | 24624 ft | 369 kts | 56° |
| 2026-05-04 06:46 | 23.58936 | 90.11412 | 22036 ft | 354 kts | 137° |
| 2026-05-04 06:46 | 23.55864 | 90.13984 | 21034 ft | 349 kts | 145° |
| 2026-05-04 06:46 | 23.53886 | 90.15497 | 20418 ft | 345 kts | 145° |
| 2026-05-04 06:48 | 23.37667 | 90.29220 | 10607 ft | 399 kts | 139° |
| 2026-05-04 06:48 | 23.33617 | 90.33309 | 7877 ft | 389 kts | 136° |
| 2026-05-04 06:49 | 23.31745 | 90.35439 | 6591 ft | 382 kts | 128° |
| 2026-05-04 06:50 | 23.27726 | 90.44478 | 5140 ft | 376 kts | 109° |
| 2026-05-04 06:51 | 23.27311 | 90.45827 | 5097 ft | 377 kts | 108° |
| 2026-05-04 06:51 | 23.26920 | 90.47187 | 5072 ft | 377 kts | 107° |
| 2026-05-04 06:51 | 23.26546 | 90.48549 | 5053 ft | 376 kts | 106° |
| 2026-05-04 06:51 | 23.26182 | 90.49917 | 5045 ft | 376 kts | 106° |
| 2026-05-04 06:52 | 23.25841 | 90.51292 | 5035 ft | 377 kts | 103° |
| 2026-05-04 06:52 | 23.25677 | 90.52704 | 5029 ft | 377 kts | 91° |
| 2026-05-04 06:52 | 23.25803 | 90.54119 | 5024 ft | 377 kts | 78° |
| 2026-05-04 06:52 | 23.26216 | 90.55469 | 5019 ft | 376 kts | 65° |
| 2026-05-04 06:53 | 23.26891 | 90.56683 | 5010 ft | 376 kts | 52° |
| 2026-05-04 06:53 | 23.27783 | 90.57689 | 5006 ft | 366 kts | 39° |
| 2026-05-04 06:53 | 23.28852 | 90.58443 | 5007 ft | 368 kts | 26° |
| 2026-05-04 06:53 | 23.30049 | 90.58941 | 5010 ft | 368 kts | 17° |
| 2026-05-04 06:54 | 23.31268 | 90.59374 | 5006 ft | 368 kts | 20° |
| 2026-05-04 06:54 | 23.32441 | 90.59888 | 4944 ft | 369 kts | 22° |
| 2026-05-04 06:54 | 23.33614 | 90.60454 | 4858 ft | 368 kts | 24° |
| 2026-05-04 06:54 | 23.34774 | 90.61042 | 4769 ft | 367 kts | 25° |
| 2026-05-04 06:55 | 23.35924 | 90.61639 | 4681 ft | 366 kts | 25° |
| 2026-05-04 06:55 | 23.37072 | 90.62241 | 4595 ft | 366 kts | 25° |
| 2026-05-04 06:55 | 23.38219 | 90.62847 | 4515 ft | 367 kts | 25° |
| 2026-05-04 06:55 | 23.39179 | 90.63357 | 4450 ft | 366 kts | 26° |
| 2026-05-04 06:56 | 23.41462 | 90.64577 | 4291 ft | 364 kts | 26° |
| 2026-05-04 06:57 | 23.55532 | 90.66088 | 3053 ft | 245 kts | 315° |
| 2026-05-04 06:58 | 23.56702 | 90.64859 | 3039 ft | 222 kts | 315° |
| 2026-05-04 06:58 | 23.57766 | 90.63719 | 3038 ft | 205 kts | 314° |
| 2026-05-04 06:58 | 23.58710 | 90.62683 | 3048 ft | 187 kts | 314° |
| 2026-05-04 06:58 | 23.59623 | 90.61671 | 3034 ft | 188 kts | 314° |
| 2026-05-04 06:59 | 23.60542 | 90.60664 | 3024 ft | 186 kts | 314° |
| 2026-05-04 06:59 | 23.61463 | 90.59667 | 3014 ft | 187 kts | 315° |
| 2026-05-04 06:59 | 23.62393 | 90.58676 | 3012 ft | 187 kts | 315° |
| 2026-05-04 06:59 | 23.63331 | 90.57692 | 3022 ft | 187 kts | 315° |
| 2026-05-04 07:01 | 23.72412 | 90.49250 | 2661 ft | 161 kts | 324° |
| 2026-05-04 07:01 | 23.73294 | 90.48557 | 2442 ft | 156 kts | 323° |
| 2026-05-04 07:02 | 23.74167 | 90.47860 | 2255 ft | 155 kts | 323° |
| 2026-05-04 07:02 | 23.75037 | 90.47179 | 2050 ft | 154 kts | 323° |
| 2026-05-04 07:02 | 23.75901 | 90.46498 | 1828 ft | 153 kts | 323° |
| 2026-05-04 07:02 | 23.76731 | 90.45834 | 1589 ft | 147 kts | 323° |
| 2026-05-04 07:03 | 23.77543 | 90.45178 | 1384 ft | 147 kts | 323° |
| 2026-05-04 07:03 | 23.78366 | 90.44522 | 1184 ft | 146 kts | 323° |
| 2026-05-04 07:03 | 23.79190 | 90.43870 | 998 ft | 146 kts | 324° |
| 2026-05-04 07:03 | 23.80014 | 90.43220 | 817 ft | 146 kts | 323° |
| 2026-05-04 07:04 | 23.80830 | 90.42566 | 624 ft | 145 kts | 323° |
| 2026-05-04 07:04 | 23.81647 | 90.41912 | 423 ft | 145 kts | 323° |
| 2026-05-04 07:04 | 23.82460 | 90.41259 | 232 ft | 144 kts | 323° |
| 2026-05-04 07:04 | 23.83295 | 90.40591 | 71 ft | 143 kts | 324° |
| 2026-05-04 07:05 | 23.83975 | 90.40054 | 38 ft | 93 kts | 324° |
| 2026-05-04 07:05 | 23.84303 | 90.39878 | 35 ft | 35 kts | 356° |
| 2026-05-04 07:05 | 23.84480 | 90.39984 | 36 ft | 28 kts | 52° |
| 2026-05-04 07:05 | 23.84592 | 90.40149 | 35 ft | 27 kts | 54° |
| 2026-05-04 07:06 | 23.84756 | 90.40330 | 36 ft | 10 kts | 47° |
| 2026-05-04 07:06 | 23.84781 | 90.40360 | 36 ft | 5 kts | 42° |
| 2026-05-04 07:06 | 23.84788 | 90.40366 | 36 ft | 0 kts | 40° |
| 2026-05-04 07:08 | 23.84794 | 90.40372 | 36 ft | 0 kts | 40° |
| 2026-05-04 07:15 | 23.84783 | 90.40355 | 36 ft | 3 kts | 84° |
| 2026-05-04 07:15 | 23.84786 | 90.40335 | 35 ft | 1 kts | 127° |
| 2026-05-04 07:16 | 23.84786 | 90.40334 | 35 ft | 0 kts | 128° |